Time;durP1;ratioP1;P1;durP2;ratioP2;P2;SDS_P1;SDS_P2;PMS_P1;PMS_P2;Temp;Humidity;BMP_temperature;BMP_pressure;BME280_temperature;BME280_humidity;BME280_pressure;Samples;Min_cycle;Max_cycle;Signal;HPM_P1;HPM_P2
2024/04/09 00:00:55;;;;;;;5.20;4.00;;;19.70;99.90;;;;;;5319901;26;21062;-41
2024/04/09 00:03:21;;;;;;;8.23;3.20;;;19.70;99.90;;;;;;5323114;26;20550;-41
2024/04/09 00:05:48;;;;;;;8.87;3.93;;;19.70;99.90;;;;;;5313618;26;20586;-41
2024/04/09 00:08:16;;;;;;;7.93;3.43;;;19.70;99.90;;;;;;5321466;26;20529;-40
2024/04/09 00:10:43;;;;;;;7.90;3.63;;;19.70;99.90;;;;;;5281924;26;20539;-40
2024/04/09 00:13:09;;;;;;;10.70;3.67;;;19.70;99.90;;;;;;5322051;26;21628;-41
2024/04/09 00:15:35;;;;;;;10.97;4.50;;;19.60;99.90;;;;;;5321216;26;20471;-41
2024/04/09 00:18:11;;;;;;;10.20;4.23;;;19.60;99.90;;;;;;5319985;26;20504;-41
2024/04/09 00:20:44;;;;;;;8.90;3.57;;;19.60;99.90;;;;;;5313293;26;20459;-40
2024/04/09 00:23:16;;;;;;;6.23;3.10;;;19.60;99.90;;;;;;5291400;26;20477;-43
2024/04/09 00:25:45;;;;;;;8.07;3.30;;;19.60;99.90;;;;;;5322196;26;20470;-40
2024/04/09 00:28:12;;;;;;;5.90;3.20;;;19.60;99.90;;;;;;5322826;26;20459;-41
2024/04/09 00:30:41;;;;;;;10.77;3.60;;;19.60;99.90;;;;;;5323083;26;20466;-41
2024/04/09 00:33:07;;;;;;;9.13;4.20;;;19.60;99.90;;;;;;5325566;26;20564;-41
2024/04/09 00:35:33;;;;;;;9.97;3.90;;;19.60;99.90;;;;;;5293920;26;20470;-42
2024/04/09 00:38:06;;;;;;;8.73;3.63;;;19.60;99.90;;;;;;5323866;26;20482;-40
2024/04/09 00:40:32;;;;;;;9.57;3.70;;;19.50;99.90;;;;;;5324614;26;20552;-39
2024/04/09 00:43:03;;;;;;;8.57;3.70;;;19.50;99.90;;;;;;5323906;26;21619;-37
2024/04/09 00:45:31;;;;;;;8.17;5.10;;;19.50;99.90;;;;;;5320813;26;20535;-41
2024/04/09 00:48:00;;;;;;;7.37;3.50;;;19.50;99.90;;;;;;5324349;26;20470;-41
2024/04/09 00:50:27;;;;;;;10.30;3.97;;;19.50;99.90;;;;;;5316818;26;21034;-41
2024/04/09 00:52:55;;;;;;;10.80;4.13;;;19.50;99.90;;;;;;5323475;26;20465;-41
2024/04/09 00:55:26;;;;;;;10.17;3.87;;;19.50;99.90;;;;;;5323251;26;20577;-40
2024/04/09 00:57:53;;;;;;;7.60;3.80;;;19.50;99.90;;;;;;5331793;26;20471;-41
2024/04/09 01:00:20;;;;;;;11.10;3.40;;;19.50;99.90;;;;;;5294746;26;20815;-41
2024/04/09 01:02:49;;;;;;;13.47;4.27;;;19.50;99.90;;;;;;5324442;26;20462;-41
2024/04/09 01:05:16;;;;;;;9.63;4.10;;;19.40;99.90;;;;;;5316242;26;20514;-39
2024/04/09 01:07:43;;;;;;;10.67;3.77;;;19.50;99.90;;;;;;5321123;26;21441;-41
2024/04/09 01:10:10;;;;;;;9.20;3.87;;;19.40;99.90;;;;;;5321875;26;20518;-41
2024/04/09 01:12:37;;;;;;;8.23;4.07;;;19.40;99.90;;;;;;5323283;26;21200;-40
2024/04/09 01:15:04;;;;;;;9.57;4.27;;;19.40;99.90;;;;;;5323193;26;20587;-41
2024/04/09 01:17:32;;;;;;;11.70;4.23;;;19.40;99.90;;;;;;5320451;26;20471;-41
2024/04/09 01:19:59;;;;;;;8.63;3.23;;;19.40;99.90;;;;;;5288930;26;20460;-41
2024/04/09 01:22:31;;;;;;;12.40;4.53;;;19.40;99.90;;;;;;5324202;26;20462;-41
2024/04/09 01:24:58;;;;;;;9.77;3.80;;;19.40;99.90;;;;;;5323266;26;20466;-41
2024/04/09 01:27:25;;;;;;;11.60;4.07;;;19.40;99.90;;;;;;5324439;26;20460;-41
2024/04/09 01:29:53;;;;;;;11.93;4.50;;;19.40;99.90;;;;;;5313717;26;21049;-41
2024/04/09 01:32:21;;;;;;;9.00;3.70;;;19.40;99.90;;;;;;5295443;26;20470;-39
2024/04/09 01:34:47;;;;;;;12.37;3.53;;;19.40;99.90;;;;;;5316158;26;21162;-41
2024/04/09 01:37:17;;;;;;;7.27;3.67;;;19.40;99.90;;;;;;5323017;26;20458;-40
2024/04/09 01:39:45;;;;;;;13.50;4.03;;;19.40;99.90;;;;;;5294005;26;21103;-41
2024/04/09 01:42:11;;;;;;;10.30;3.80;;;19.40;99.90;;;;;;5324372;26;20974;-41
2024/04/09 01:44:38;;;;;;;12.50;3.70;;;19.40;99.90;;;;;;5322224;26;20466;-41
2024/04/09 01:47:06;;;;;;;12.13;3.70;;;19.30;99.90;;;;;;5316109;26;20467;-41
2024/04/09 01:49:32;;;;;;;7.40;4.00;;;19.30;99.90;;;;;;5322007;26;20587;-41
2024/04/09 01:52:01;;;;;;;8.33;3.97;;;19.30;99.90;;;;;;5324604;26;21255;-41
2024/04/09 01:54:27;;;;;;;11.20;4.47;;;19.30;99.90;;;;;;5322818;26;20471;-41
2024/04/09 01:56:53;;;;;;;14.47;3.97;;;19.30;99.90;;;;;;5292913;26;20510;-41
2024/04/09 01:59:19;;;;;;;9.20;3.93;;;19.30;99.90;;;;;;5291834;26;20474;-40
2024/04/09 02:01:45;;;;;;;10.80;4.50;;;19.30;99.90;;;;;;5323700;26;20518;-41
2024/04/09 02:04:12;;;;;;;8.40;4.10;;;19.30;99.90;;;;;;5321403;26;20447;-40
2024/04/09 02:06:42;;;;;;;10.97;3.77;;;19.30;99.90;;;;;;5313337;26;20454;-41
2024/04/09 02:09:09;;;;;;;9.90;4.00;;;19.30;99.90;;;;;;5317157;26;21085;-41
2024/04/09 02:11:37;;;;;;;8.37;3.47;;;19.30;99.90;;;;;;5323610;26;20478;-41
2024/04/09 02:14:04;;;;;;;10.23;3.93;;;19.30;99.90;;;;;;5321780;26;20530;-40
2024/04/09 02:16:31;;;;;;;9.70;3.73;;;19.20;99.90;;;;;;5285416;26;20477;-41
2024/04/09 02:18:57;;;;;;;8.70;4.80;;;19.20;99.90;;;;;;5320784;26;21050;-40
2024/04/09 02:21:23;;;;;;;5.70;3.47;;;19.20;99.90;;;;;;5323047;26;20521;-41
2024/04/09 02:23:53;;;;;;;8.43;4.27;;;19.30;99.90;;;;;;5294108;26;21143;-41
2024/04/09 02:26:19;;;;;;;15.40;4.57;;;19.20;99.90;;;;;;5322739;26;20525;-41
2024/04/09 02:28:45;;;;;;;11.33;4.20;;;19.20;99.90;;;;;;5323578;26;20474;-41
2024/04/09 02:31:11;;;;;;;14.20;4.17;;;19.20;99.90;;;;;;5325292;26;20451;-40
2024/04/09 02:33:38;;;;;;;13.63;3.80;;;19.20;99.90;;;;;;5324858;26;20458;-40
2024/04/09 02:36:05;;;;;;;12.40;3.40;;;19.20;99.90;;;;;;5325868;26;21416;-41
2024/04/09 02:38:38;;;;;;;7.87;3.43;;;19.20;99.90;;;;;;5325614;26;21392;-41
2024/04/09 02:41:05;;;;;;;5.67;3.50;;;19.20;99.90;;;;;;5320193;26;20932;-41
2024/04/09 02:43:31;;;;;;;6.57;2.80;;;19.20;99.90;;;;;;5316864;26;20466;-41
2024/04/09 02:45:59;;;;;;;7.77;3.37;;;19.20;99.90;;;;;;5307922;26;20538;-41
2024/04/09 02:48:25;;;;;;;8.10;3.63;;;19.20;99.90;;;;;;5314382;26;21497;-41
2024/04/09 02:50:54;;;;;;;6.30;3.20;;;19.10;99.90;;;;;;5321341;26;20513;-40
2024/04/09 02:53:20;;;;;;;6.83;3.90;;;19.20;99.90;;;;;;5317379;26;20478;-41
2024/04/09 02:55:46;;;;;;;8.47;3.37;;;19.10;99.90;;;;;;5315247;26;20588;-41
2024/04/09 02:58:12;;;;;;;8.60;3.30;;;19.10;99.90;;;;;;5321096;26;20551;-41
2024/04/09 03:00:38;;;;;;;8.77;4.07;;;19.10;99.90;;;;;;5293780;26;20997;-41
2024/04/09 03:03:04;;;;;;;9.13;4.07;;;19.10;99.90;;;;;;5321319;26;20474;-41
2024/04/09 03:05:35;;;;;;;8.97;4.30;;;19.10;99.90;;;;;;5310783;26;20567;-41
2024/04/09 03:08:01;;;;;;;11.77;4.30;;;19.10;99.90;;;;;;5322516;26;20511;-41
2024/04/09 03:10:32;;;;;;;7.47;3.77;;;19.10;99.90;;;;;;5316311;26;20970;-42
2024/04/09 03:12:59;;;;;;;9.47;4.10;;;19.10;99.90;;;;;;5322817;26;20466;-41
2024/04/09 03:15:25;;;;;;;9.90;4.20;;;19.10;99.90;;;;;;5320604;26;21194;-41
2024/04/09 03:17:52;;;;;;;6.77;3.50;;;19.10;99.90;;;;;;5320375;26;20497;-41
2024/04/09 03:20:19;;;;;;;5.03;2.83;;;19.10;99.90;;;;;;5316338;26;20489;-41
2024/04/09 03:22:50;;;;;;;7.60;3.40;;;19.00;99.90;;;;;;5322111;26;20451;-41
2024/04/09 03:25:16;;;;;;;9.37;3.77;;;19.00;99.90;;;;;;5322288;26;20576;-41
2024/04/09 03:27:42;;;;;;;6.70;3.83;;;19.00;99.90;;;;;;5261077;26;20540;-41
2024/04/09 03:30:12;;;;;;;9.80;4.10;;;19.00;99.90;;;;;;5249007;26;20517;-41
2024/04/09 03:32:38;;;;;;;8.27;4.30;;;19.00;99.90;;;;;;5318334;26;20985;-40
2024/04/09 03:35:07;;;;;;;6.43;3.20;;;18.90;99.90;;;;;;5320323;26;20563;-41
2024/04/09 03:37:33;;;;;;;9.73;3.87;;;19.00;99.90;;;;;;5320246;26;20458;-41
2024/04/09 03:39:59;;;;;;;6.57;4.10;;;19.00;99.90;;;;;;5319455;26;20478;-41
2024/04/09 03:42:25;;;;;;;9.87;3.60;;;19.00;99.90;;;;;;5322634;26;20454;-41
2024/04/09 03:44:51;;;;;;;8.70;3.50;;;18.90;99.90;;;;;;5322527;26;20551;-41
2024/04/09 03:47:17;;;;;;;8.37;3.53;;;18.90;99.90;;;;;;5321420;26;20506;-41
2024/04/09 03:49:43;;;;;;;9.80;4.00;;;19.00;99.90;;;;;;5320756;26;21726;-40
2024/04/09 03:52:10;;;;;;;6.87;3.77;;;19.00;99.90;;;;;;5321354;26;20465;-41
2024/04/09 03:54:37;;;;;;;7.63;3.80;;;18.90;99.90;;;;;;5316875;26;20508;-41
2024/04/09 03:57:03;;;;;;;8.00;3.33;;;18.90;99.90;;;;;;5322348;26;21044;-41
2024/04/09 03:59:36;;;;;;;8.53;4.30;;;18.90;99.90;;;;;;5322147;26;20992;-41
2024/04/09 04:02:03;;;;;;;7.00;3.60;;;18.90;99.90;;;;;;5322968;26;20478;-41
2024/04/09 04:04:29;;;;;;;7.80;3.07;;;18.90;99.90;;;;;;5322869;26;21495;-41
2024/04/09 04:06:55;;;;;;;7.57;3.67;;;18.90;99.90;;;;;;5323046;26;20586;-41
2024/04/09 04:09:23;;;;;;;7.53;3.33;;;18.90;99.90;;;;;;5321822;26;20537;-39
2024/04/09 04:11:51;;;;;;;7.27;3.30;;;18.80;99.90;;;;;;5316907;26;21118;-41
2024/04/09 04:14:19;;;;;;;9.70;3.53;;;18.80;99.90;;;;;;5321806;26;20506;-40
2024/04/09 04:16:46;;;;;;;7.33;3.87;;;18.80;99.90;;;;;;5324451;26;20562;-41
2024/04/09 04:19:16;;;;;;;8.90;3.93;;;18.80;99.90;;;;;;5322960;26;20553;-39
2024/04/09 04:21:42;;;;;;;9.87;3.90;;;18.80;99.90;;;;;;5293634;26;21558;-41
2024/04/09 04:24:08;;;;;;;8.70;3.30;;;18.80;99.90;;;;;;5321861;26;21519;-41
2024/04/09 04:26:34;;;;;;;11.03;3.90;;;18.80;99.90;;;;;;5322001;26;20630;-40
2024/04/09 04:29:01;;;;;;;6.23;3.23;;;18.80;99.90;;;;;;5323540;26;20485;-41
2024/04/09 04:31:30;;;;;;;9.23;3.17;;;18.70;99.90;;;;;;5323187;26;20589;-41
2024/04/09 04:33:56;;;;;;;7.40;3.40;;;18.80;99.90;;;;;;5323767;26;20469;-41
2024/04/09 04:36:22;;;;;;;7.77;3.70;;;18.70;99.90;;;;;;5319041;26;20515;-41
2024/04/09 04:38:49;;;;;;;6.80;3.30;;;18.70;99.90;;;;;;5325358;26;20466;-41
2024/04/09 04:41:15;;;;;;;8.17;3.20;;;18.70;99.90;;;;;;5321421;26;20570;-40
2024/04/09 04:43:42;;;;;;;6.30;3.27;;;18.70;99.90;;;;;;5316962;26;20522;-41
2024/04/09 04:46:08;;;;;;;7.10;3.20;;;18.70;99.90;;;;;;5323333;26;20512;-41
2024/04/09 04:48:35;;;;;;;8.53;2.97;;;18.60;99.90;;;;;;5321099;26;20930;-41
2024/04/09 04:51:01;;;;;;;6.70;2.90;;;18.70;99.90;;;;;;5323883;26;20512;-41
2024/04/09 04:53:27;;;;;;;5.63;3.20;;;18.70;99.90;;;;;;5324727;26;20536;-41
2024/04/09 04:55:53;;;;;;;5.10;2.70;;;18.60;99.90;;;;;;5318833;26;20509;-41
2024/04/09 04:58:19;;;;;;;9.20;3.00;;;18.60;99.90;;;;;;5321388;26;21355;-40
2024/04/09 05:00:46;;;;;;;5.67;2.73;;;18.60;99.90;;;;;;5318667;26;20605;-40
2024/04/09 05:03:12;;;;;;;8.60;3.13;;;18.60;99.90;;;;;;5322968;26;20449;-41
2024/04/09 05:05:38;;;;;;;7.87;3.73;;;18.60;99.90;;;;;;5321035;26;22386;-41
2024/04/09 05:08:09;;;;;;;4.70;2.57;;;18.60;99.90;;;;;;5321779;26;20458;-41
2024/04/09 05:10:37;;;;;;;5.07;2.43;;;18.60;99.90;;;;;;5321191;26;20462;-40
2024/04/09 05:13:04;;;;;;;6.13;2.70;;;18.60;99.90;;;;;;5318542;26;20589;-41
2024/04/09 05:15:30;;;;;;;5.57;2.80;;;18.60;99.90;;;;;;5314796;26;20500;-40
2024/04/09 05:17:56;;;;;;;6.50;2.67;;;18.60;99.90;;;;;;5321173;26;20662;-41
2024/04/09 05:20:27;;;;;;;4.80;2.87;;;18.60;99.90;;;;;;5319105;26;20497;-41
2024/04/09 05:22:52;;;;;;;3.27;2.17;;;18.60;99.90;;;;;;5324321;26;20501;-41
2024/04/09 05:25:18;;;;;;;7.00;2.40;;;18.60;99.90;;;;;;5326862;26;20454;-41
2024/04/09 05:27:45;;;;;;;7.10;2.63;;;18.50;99.90;;;;;;5321511;26;21020;-40
2024/04/09 05:30:12;;;;;;;6.50;2.67;;;18.60;99.90;;;;;;5322771;26;20455;-41
2024/04/09 05:32:41;;;;;;;3.90;2.50;;;18.50;99.90;;;;;;5320426;26;20478;-40
2024/04/09 05:35:11;;;;;;;4.90;2.30;;;18.50;99.90;;;;;;5320099;26;20518;-41
2024/04/09 05:37:38;;;;;;;3.97;2.23;;;18.50;99.90;;;;;;5320155;26;21063;-40
2024/04/09 05:40:08;;;;;;;4.40;2.30;;;18.50;99.90;;;;;;5321864;26;20462;-41
2024/04/09 05:42:38;;;;;;;4.23;2.30;;;18.50;99.90;;;;;;5281048;26;20466;-40
2024/04/09 05:45:09;;;;;;;5.47;2.20;;;18.50;99.90;;;;;;5322398;26;20514;-39
2024/04/09 05:47:37;;;;;;;3.97;2.23;;;18.50;99.90;;;;;;5318852;26;20510;-41
2024/04/09 05:50:04;;;;;;;4.50;2.77;;;18.50;99.90;;;;;;5320722;26;20971;-45
2024/04/09 05:52:31;;;;;;;4.00;2.47;;;18.50;99.90;;;;;;5320681;26;20962;-40
2024/04/09 05:54:58;;;;;;;4.20;2.80;;;18.40;99.90;;;;;;5319600;26;20573;-41
2024/04/09 05:57:24;;;;;;;3.60;2.30;;;18.40;99.90;;;;;;5320757;26;20478;-40
2024/04/09 05:59:52;;;;;;;2.47;2.10;;;18.50;99.90;;;;;;5320053;26;20534;-41
2024/04/09 06:02:22;;;;;;;3.33;2.33;;;18.50;99.90;;;;;;5320258;26;20474;-40
2024/04/09 06:04:48;;;;;;;2.80;2.00;;;18.50;99.90;;;;;;5320678;26;20466;-40
2024/04/09 06:07:15;;;;;;;4.33;2.20;;;18.40;99.90;;;;;;5319859;26;20517;-40
2024/04/09 06:09:41;;;;;;;4.17;2.17;;;18.50;99.90;;;;;;5322456;26;21093;-41
2024/04/09 06:12:07;;;;;;;4.33;2.10;;;18.40;99.90;;;;;;5320868;26;20470;-40
2024/04/09 06:14:33;;;;;;;3.13;2.10;;;18.40;99.90;;;;;;5321963;26;20466;-41
2024/04/09 06:16:59;;;;;;;3.30;2.23;;;18.40;99.90;;;;;;5319730;26;20537;-41
2024/04/09 06:19:25;;;;;;;4.63;2.17;;;18.40;99.90;;;;;;5318762;26;20486;-41
2024/04/09 06:21:51;;;;;;;3.57;2.37;;;18.40;99.90;;;;;;5318100;26;21613;-40
2024/04/09 06:24:17;;;;;;;5.07;2.27;;;18.40;99.90;;;;;;5318947;26;20502;-40
2024/04/09 06:26:43;;;;;;;4.13;1.80;;;18.30;99.90;;;;;;5319625;26;20652;-40
2024/04/09 06:29:09;;;;;;;3.93;2.10;;;18.40;99.90;;;;;;5291661;26;20470;-40
2024/04/09 06:31:37;;;;;;;5.93;2.50;;;18.30;99.90;;;;;;5321651;26;20505;-40
2024/04/09 06:34:04;;;;;;;3.27;1.80;;;18.40;99.90;;;;;;5262961;26;21357;-40
2024/04/09 06:36:32;;;;;;;3.90;2.07;;;18.30;99.90;;;;;;5320283;26;20470;-40
2024/04/09 06:38:58;;;;;;;7.30;2.30;;;18.30;99.90;;;;;;5320678;26;20458;-40
2024/04/09 06:41:25;;;;;;;2.10;1.70;;;18.30;99.90;;;;;;5323179;26;20466;-40
2024/04/09 06:43:51;;;;;;;4.90;1.80;;;18.30;99.90;;;;;;5323686;26;20520;-40
2024/04/09 06:46:17;;;;;;;3.60;1.90;;;18.30;99.90;;;;;;5321988;26;20813;-42
2024/04/09 06:48:43;;;;;;;5.40;2.43;;;18.30;99.90;;;;;;5322798;26;20609;-41
2024/04/09 06:51:09;;;;;;;3.90;2.20;;;18.20;99.90;;;;;;5321611;26;20537;-40
2024/04/09 06:53:36;;;;;;;2.30;1.53;;;18.20;99.90;;;;;;5324915;26;21052;-41
2024/04/09 06:56:06;;;;;;;2.70;1.90;;;18.20;99.90;;;;;;5324677;26;20259;-40
2024/04/09 06:58:32;;;;;;;2.30;1.70;;;18.20;99.90;;;;;;5323108;26;20478;-40
2024/04/09 07:00:58;;;;;;;4.33;1.80;;;18.20;99.90;;;;;;5325589;26;20515;-39
2024/04/09 07:03:26;;;;;;;2.77;1.67;;;18.20;99.90;;;;;;5323535;26;21319;-41
2024/04/09 07:05:55;;;;;;;1.97;1.60;;;18.10;99.90;;;;;;5290481;27;20463;-40
2024/04/09 07:08:24;;;;;;;1.80;1.50;;;18.10;99.90;;;;;;5324573;26;20462;-40
2024/04/09 07:10:56;;;;;;;3.33;1.33;;;18.10;99.90;;;;;;5316883;26;21061;-42
2024/04/09 07:13:25;;;;;;;1.73;1.40;;;18.10;99.90;;;;;;5322662;26;20589;-40
2024/04/09 07:15:51;;;;;;;1.70;1.30;;;18.10;99.90;;;;;;5312840;26;20473;-41
2024/04/09 07:18:17;;;;;;;3.33;1.30;;;18.00;99.90;;;;;;5290590;26;20573;-41
2024/04/09 07:20:47;;;;;;;3.43;1.10;;;18.00;99.90;;;;;;5274419;26;20645;-39
2024/04/09 07:23:13;;;;;;;1.83;1.20;;;18.00;99.90;;;;;;5292651;26;20753;-40
2024/04/09 07:25:39;;;;;;;1.20;1.10;;;18.00;99.90;;;;;;5318155;26;20471;-40
2024/04/09 07:28:05;;;;;;;2.93;1.23;;;18.00;99.90;;;;;;5320677;26;21317;-40
2024/04/09 07:30:36;;;;;;;3.00;1.90;;;18.00;99.90;;;;;;5317375;26;20462;-40
2024/04/09 07:33:02;;;;;;;3.97;1.63;;;17.90;99.90;;;;;;5313257;26;20563;-40
2024/04/09 07:35:30;;;;;;;2.17;1.40;;;17.90;99.90;;;;;;5317798;26;20557;-40
2024/04/09 07:37:56;;;;;;;2.23;1.77;;;17.90;99.90;;;;;;5315766;26;21096;-40
2024/04/09 07:40:23;;;;;;;1.43;1.33;;;17.90;99.90;;;;;;5292328;26;20569;-38
2024/04/09 07:42:51;;;;;;;2.37;1.40;;;17.90;99.90;;;;;;5282842;26;20541;-39
2024/04/09 07:45:18;;;;;;;3.43;1.40;;;17.90;99.90;;;;;;5319152;26;20477;-41
2024/04/09 07:47:49;;;;;;;3.10;1.10;;;17.90;99.90;;;;;;5310664;26;21000;-40
2024/04/09 07:50:15;;;;;;;5.00;1.53;;;17.80;99.90;;;;;;5300309;26;20471;-40
2024/04/09 07:52:44;;;;;;;1.83;1.20;;;17.80;99.80;;;;;;5311647;26;21270;-40
2024/04/09 07:55:11;;;;;;;2.60;1.40;;;17.80;99.70;;;;;;5319920;26;20466;-40
2024/04/09 07:57:44;;;;;;;3.70;1.37;;;17.80;99.70;;;;;;5319655;26;20856;-41
2024/04/09 08:00:14;;;;;;;2.17;1.20;;;17.80;99.70;;;;;;5317370;26;20525;-41
2024/04/09 08:02:44;;;;;;;6.00;1.70;;;17.80;99.70;;;;;;5291585;26;20589;-40
2024/04/09 08:05:10;;;;;;;2.20;1.23;;;17.80;99.70;;;;;;5312287;26;21436;-41
2024/04/09 08:07:39;;;;;;;2.90;1.30;;;17.80;99.70;;;;;;5321373;26;20556;-41
2024/04/09 08:10:11;;;;;;;2.30;1.30;;;17.80;99.80;;;;;;5321633;26;20458;-41
2024/04/09 08:12:46;;;;;;;3.77;1.60;;;17.70;99.60;;;;;;5319040;26;20559;-40
2024/04/09 08:15:12;;;;;;;4.93;1.33;;;17.70;99.60;;;;;;5321904;26;20889;-40
2024/04/09 08:17:47;;;;;;;2.80;1.30;;;17.70;99.60;;;;;;5326052;26;21271;-37
2024/04/09 08:20:18;;;;;;;2.47;1.27;;;17.70;99.50;;;;;;5292773;26;20589;-41
2024/04/09 08:22:48;;;;;;;3.23;1.40;;;17.70;99.60;;;;;;5319815;26;20526;-39
2024/04/09 08:25:14;;;;;;;3.13;1.03;;;17.70;99.60;;;;;;5322378;26;20470;-41
2024/04/09 08:27:45;;;;;;;3.40;1.97;;;17.70;99.50;;;;;;5320270;26;20454;-41
2024/04/09 08:30:13;;;;;;;2.10;1.30;;;17.70;99.50;;;;;;5320604;26;20474;-40
2024/04/09 08:32:40;;;;;;;4.50;1.53;;;17.70;99.50;;;;;;5321465;26;20482;-41
2024/04/09 08:35:08;;;;;;;5.40;2.67;;;17.60;99.30;;;;;;5314828;26;20458;-40
2024/04/09 08:37:34;;;;;;;3.87;1.37;;;17.70;99.20;;;;;;5318482;26;20541;-42
2024/04/09 08:40:00;;;;;;;1.97;1.40;;;17.60;99.10;;;;;;5321769;26;20518;-40
2024/04/09 08:42:26;;;;;;;2.63;1.20;;;17.60;98.90;;;;;;5316509;26;20454;-36
2024/04/09 08:44:58;;;;;;;2.80;1.20;;;17.60;98.90;;;;;;5321306;26;20458;-41
2024/04/09 08:47:28;;;;;;;2.57;1.23;;;17.60;98.80;;;;;;5320521;26;20478;-41
2024/04/09 08:49:54;;;;;;;2.97;1.20;;;17.60;98.70;;;;;;5294156;26;20465;-41
2024/04/09 08:52:26;;;;;;;3.30;1.70;;;17.60;98.60;;;;;;5324661;26;20497;-41
2024/04/09 08:54:52;;;;;;;3.07;1.43;;;17.60;98.60;;;;;;5324515;26;20569;-41
2024/04/09 08:57:21;;;;;;;5.00;1.27;;;17.60;98.60;;;;;;5324169;26;20474;-41
2024/04/09 08:59:47;;;;;;;2.97;1.30;;;17.60;98.60;;;;;;5326430;26;20521;-40
2024/04/09 09:02:15;;;;;;;1.97;1.13;;;17.60;98.60;;;;;;5318824;26;20470;-39
2024/04/09 09:04:45;;;;;;;2.63;1.20;;;17.60;98.50;;;;;;5323551;26;20462;-40
2024/04/09 09:07:14;;;;;;;2.10;1.23;;;17.60;98.40;;;;;;5315418;26;20553;-41
2024/04/09 09:09:42;;;;;;;2.70;1.40;;;17.60;98.40;;;;;;5310343;26;20490;-41
2024/04/09 09:12:09;;;;;;;2.23;1.30;;;17.60;98.40;;;;;;5312313;26;20463;-42
2024/04/09 09:14:36;;;;;;;3.00;1.10;;;17.60;98.30;;;;;;5322249;26;20577;-40
2024/04/09 09:17:06;;;;;;;3.70;1.33;;;17.50;98.00;;;;;;5319269;26;21460;-40
2024/04/09 09:19:36;;;;;;;3.00;1.60;;;17.50;98.00;;;;;;5318182;26;20878;-41
2024/04/09 09:22:06;;;;;;;2.27;1.13;;;17.50;97.30;;;;;;5316076;26;21310;-39
2024/04/09 09:24:34;;;;;;;2.00;1.20;;;17.50;97.20;;;;;;5303585;26;20609;-39
2024/04/09 09:27:10;;;;;;;4.00;1.10;;;17.50;96.90;;;;;;5312486;26;21128;-40
2024/04/09 09:29:36;;;;;;;3.13;1.60;;;17.40;96.70;;;;;;5297434;21;20551;-66
2024/04/09 09:32:04;;;;;;;2.50;1.17;;;17.40;96.50;;;;;;5285885;26;20479;-66
2024/04/09 09:34:42;;;;;;;4.10;1.40;;;17.40;96.10;;;;;;5256465;27;20543;-66
2024/04/09 09:37:10;;;;;;;2.63;1.43;;;17.40;95.70;;;;;;5256023;27;20522;-66
2024/04/09 09:39:39;;;;;;;4.87;1.13;;;17.40;95.50;;;;;;5307789;26;20578;-66
2024/04/09 09:42:10;;;;;;;2.50;1.17;;;17.40;95.10;;;;;;5251065;27;20503;-66
2024/04/09 09:44:38;;;;;;;1.90;1.20;;;17.30;94.90;;;;;;5252842;27;20547;-66
2024/04/09 09:47:08;;;;;;;2.67;1.10;;;17.30;95.00;;;;;;5225229;27;20465;-66
2024/04/09 09:49:35;;;;;;;2.50;0.90;;;17.30;95.10;;;;;;5251868;27;20506;-66
2024/04/09 09:52:07;;;;;;;1.80;1.10;;;17.30;95.10;;;;;;5251917;27;20525;-66
2024/04/09 09:54:36;;;;;;;4.53;1.43;;;17.30;95.10;;;;;;5248169;27;20476;-66
2024/04/09 09:57:02;;;;;;;1.33;1.20;;;17.30;95.20;;;;;;5251463;27;20570;-66
2024/04/09 09:59:36;;;;;;;4.03;1.47;;;17.30;95.10;;;;;;5225460;27;20972;-66
2024/04/09 10:02:03;;;;;;;6.27;1.17;;;17.30;95.10;;;;;;5251631;27;21102;-66
2024/04/09 10:04:30;;;;;;;2.60;1.10;;;17.30;95.10;;;;;;5281637;27;20608;-68
2024/04/09 10:06:57;;;;;;;3.03;1.10;;;17.30;95.20;;;;;;5253958;27;20543;-67
2024/04/09 10:09:43;;;;;;;2.60;1.40;;;17.20;95.20;;;;;;5281500;27;20484;-66
2024/04/09 10:12:32;;;;;;;4.03;1.30;;;17.30;95.20;;;;;;5255692;27;20476;-67
2024/04/09 10:15:07;;;;;;;4.20;1.20;;;17.20;95.10;;;;;;5276157;27;20547;-68
2024/04/09 10:17:54;;;;;;;2.60;1.27;;;17.20;95.20;;;;;;5226083;27;20452;-67
2024/04/09 10:20:31;;;;;;;5.50;1.60;;;17.20;95.30;;;;;;5282978;27;20559;-67
2024/04/09 10:23:01;;;;;;;3.00;1.30;;;17.20;95.20;;;;;;5255214;27;20551;-67
2024/04/09 10:25:46;;;;;;;6.83;2.30;;;17.20;95.20;;;;;;5226624;27;20904;-68
2024/04/09 10:28:25;;;;;;;2.73;1.20;;;17.20;95.10;;;;;;5252044;27;20896;-69
2024/04/09 10:30:55;;;;;;;2.83;1.33;;;17.20;95.00;;;;;;5216715;27;20588;-68
2024/04/09 10:33:29;;;;;;;2.40;1.30;;;17.30;95.00;;;;;;5223168;27;20477;-68
2024/04/09 10:35:58;;;;;;;2.90;1.10;;;17.30;94.70;;;;;;5253432;27;21035;-68
2024/04/09 10:38:25;;;;;;;3.80;1.20;;;17.30;94.30;;;;;;5255818;27;20529;-68
2024/04/09 10:40:52;;;;;;;3.10;1.80;;;17.30;94.30;;;;;;5255876;27;20533;-68
2024/04/09 10:43:18;;;;;;;4.13;1.43;;;17.30;94.50;;;;;;5227077;27;20532;-68
2024/04/09 10:45:44;;;;;;;4.50;1.17;;;17.40;94.30;;;;;;5254741;27;20517;-68
2024/04/09 10:48:12;;;;;;;1.30;1.03;;;17.40;94.20;;;;;;5253863;27;20491;-68
2024/04/09 10:50:42;;;;;;;2.53;1.20;;;17.40;94.10;;;;;;5254900;27;20640;-69
2024/04/09 10:53:09;;;;;;;3.50;1.30;;;17.30;94.10;;;;;;5255300;27;20477;-68
2024/04/09 10:55:36;;;;;;;2.40;1.27;;;17.40;94.10;;;;;;5255728;27;21007;-68
2024/04/09 10:58:05;;;;;;;2.93;1.40;;;17.40;93.80;;;;;;5252701;27;21058;-69
2024/04/09 11:00:33;;;;;;;5.20;1.80;;;17.40;93.80;;;;;;5249326;27;20545;-68
2024/04/09 11:03:00;;;;;;;2.00;1.03;;;17.40;93.90;;;;;;5252234;27;20465;-68
2024/04/09 11:05:29;;;;;;;3.43;1.33;;;17.40;93.80;;;;;;5282367;27;20548;-68
2024/04/09 11:08:02;;;;;;;4.40;1.37;;;17.50;93.80;;;;;;5228955;27;20469;-69
2024/04/09 11:10:28;;;;;;;5.07;1.50;;;17.40;93.70;;;;;;5255109;27;20469;-69
2024/04/09 11:12:55;;;;;;;5.37;1.27;;;17.40;93.60;;;;;;5253274;27;20527;-68
2024/04/09 11:15:44;;;;;;;4.20;1.30;;;17.40;93.50;;;;;;5223898;27;20532;-68
2024/04/09 11:18:19;;;;;;;4.83;1.50;;;17.40;93.60;;;;;;5223482;27;20540;-68
2024/04/09 11:20:58;;;;;;;2.43;1.13;;;17.40;93.60;;;;;;5253367;27;20469;-68
2024/04/09 11:23:25;;;;;;;5.60;1.30;;;17.40;93.40;;;;;;5279684;27;20465;-68
2024/04/09 11:25:52;;;;;;;3.47;1.30;;;17.40;93.20;;;;;;5252397;27;20476;-68
2024/04/09 11:28:20;;;;;;;3.63;1.40;;;17.40;92.80;;;;;;5252633;27;20536;-68
2024/04/09 11:30:50;;;;;;;6.40;1.93;;;17.40;92.70;;;;;;5254060;27;21061;-68
2024/04/09 11:33:19;;;;;;;3.90;1.10;;;17.40;92.50;;;;;;5251088;27;20533;-68
2024/04/09 11:35:59;;;;;;;2.73;1.30;;;17.40;92.30;;;;;;5243650;27;20489;-69
2024/04/09 11:38:28;;;;;;;3.43;1.27;;;17.40;92.30;;;;;;5254372;27;20593;-68
2024/04/09 11:40:59;;;;;;;4.17;1.43;;;17.40;92.20;;;;;;5254180;27;20481;-68
2024/04/09 11:43:27;;;;;;;2.73;1.10;;;17.40;92.00;;;;;;5255954;27;20480;-68
2024/04/09 11:45:58;;;;;;;2.97;1.43;;;17.40;91.90;;;;;;5259245;27;21084;-68
2024/04/09 11:48:24;;;;;;;6.20;1.50;;;17.30;91.70;;;;;;5261825;27;20503;-68
2024/04/09 11:50:53;;;;;;;4.30;1.30;;;17.40;91.30;;;;;;5281412;27;20965;-68
2024/04/09 11:53:19;;;;;;;3.83;1.53;;;17.30;91.20;;;;;;5253193;27;20469;-67
2024/04/09 11:55:45;;;;;;;5.07;1.43;;;17.30;90.90;;;;;;5252712;27;20911;-68
2024/04/09 11:58:12;;;;;;;3.60;1.10;;;17.40;90.70;;;;;;5251074;27;20524;-68
2024/04/09 12:00:39;;;;;;;6.57;1.47;;;17.30;90.40;;;;;;5254907;27;20584;-67
2024/04/09 12:03:05;;;;;;;4.40;1.70;;;17.40;90.00;;;;;;5251431;27;20580;-69
2024/04/09 12:05:32;;;;;;;3.33;1.50;;;17.40;89.80;;;;;;5253781;27;20477;-68
2024/04/09 12:08:01;;;;;;;2.97;1.10;;;17.40;89.50;;;;;;5252709;27;20472;-68
2024/04/09 12:10:29;;;;;;;3.97;1.37;;;17.30;89.60;;;;;;5237011;27;20525;-67
2024/04/09 12:12:55;;;;;;;3.90;1.20;;;17.40;89.20;;;;;;5254229;27;20600;-68
2024/04/09 12:15:22;;;;;;;2.07;1.10;;;17.30;89.50;;;;;;5254645;27;20488;-68
2024/04/09 12:17:51;;;;;;;4.90;1.17;;;17.40;89.10;;;;;;5225900;27;20469;-68
2024/04/09 12:20:18;;;;;;;2.43;1.00;;;17.30;88.50;;;;;;5255192;27;20987;-67
2024/04/09 12:22:47;;;;;;;2.83;1.20;;;17.40;88.60;;;;;;5254657;27;20931;-67
2024/04/09 12:25:13;;;;;;;2.57;1.23;;;17.40;88.70;;;;;;5254587;27;20472;-67
2024/04/09 12:27:39;;;;;;;5.50;1.47;;;17.40;87.70;;;;;;5282253;27;20464;-67
2024/04/09 12:30:08;;;;;;;6.63;1.30;;;17.40;87.00;;;;;;5253540;27;20536;-68
2024/04/09 12:32:40;;;;;;;5.30;1.20;;;17.40;87.10;;;;;;5319819;26;20474;-31
2024/04/09 12:35:07;;;;;;;3.90;1.40;;;17.40;87.10;;;;;;5321781;26;21055;-35
2024/04/09 12:37:32;;;;;;;6.77;1.50;;;17.40;86.50;;;;;;5319236;26;20785;-32
2024/04/09 12:39:59;;;;;;;2.50;1.40;;;17.40;86.10;;;;;;5322456;26;20534;-31
2024/04/09 12:42:27;;;;;;;7.20;1.40;;;17.50;86.20;;;;;;5321963;26;21428;-30
2024/04/09 12:44:55;;;;;;;8.17;1.83;;;17.50;86.00;;;;;;5321178;26;20530;-30
2024/04/09 12:47:23;;;;;;;5.80;1.50;;;17.50;86.00;;;;;;5322176;26;20516;-31
2024/04/09 12:49:48;;;;;;;3.80;1.40;;;17.40;86.30;;;;;;5326090;26;20522;-31